Flight Track Log - Related Links

Times and Time Zones

All times are in EDT time to prevent confusion due to time zone crossing. See the KAP29 flight status page for this flight to view local times or setup timezone preferences in your user account.

Time Position Orientation Groundspeed Altitude Reporting Facility
EDT Latitude Longitude Course Direction KTS MPH feet Rate Location/Type
Fri 11:44:16 AM 44.3628 -74.1881 122° Southeast 137 158 9,000  Level Boston Center
Fri 11:45:16 AM 44.3631 -74.1678 89° East 69 79 9,000  Level Boston Center
Fri 11:46:16 AM 44.3611 -74.1475 98° East 43 49 9,000  Level Boston Center
Fri 11:47:16 AM 44.3614 -74.1300 89° East 43 49 9,000  Level Boston Center
Fri 11:48:16 AM 44.3617 -74.1097 89° East 48 55 9,000  Level Boston Center
Fri 11:49:00 AM 44.3776 -74.1887 122° Southeast  Level FlightAware Approximate
Fri 11:49:16 AM 44.3619 -74.0894 89° East 48 55 9,000  Level Boston Center
Fri 11:50:16 AM 44.3603 -74.0692 97° East 48 55 9,000  Level Boston Center
Fri 11:51:16 AM 44.3606 -74.0517 89° East 48 55 9,000  Level Boston Center
Fri 11:52:16 AM 44.3608 -74.0314 89° East 48 55 9,000  Level Boston Center
Fri 11:53:16 AM 44.3589 -74.0167 100° East 48 55 9,000  Level Boston Center
Fri 11:54:16 AM 44.3592 -73.9936 89° East 48 55 9,000  Level Boston Center
Fri 11:55:16 AM 44.3636 -73.9792 67° East 48 55 9,000  Level Boston Center
Fri 11:56:16 AM 44.3594 -73.9644 112° Southeast 48 55 9,000 -2,650 Level Boston Center
Fri 11:57:16 AM 44.3347 -74.2453 263° West 48 55 3,700 -1,909 Descending Boston Center
Fri 11:58:28 AM 44.2994 -74.2356 169° South 140 161 4,800 955 Climbing Boston Center
Fri 11:59:28 AM 44.2706 -74.2203 159° South 128 147 5,800 800 Climbing Boston Center
Fri 12:00:28 PM 44.2608 -74.1650 104° East 105 121 6,400 744 Climbing Boston Center
Fri 12:01:29 PM 44.2386 -74.1150 122° Southeast 135 155 7,300 650 Climbing Boston Center
Fri 12:02:28 PM 44.2144 -74.0564 120° Southeast 157 181 7,700 353 Climbing Boston Center
Fri 12:03:28 PM 44.1922 -74.0064 122° Southeast 164 189 8,000 350 Climbing Boston Center
Fri 12:04:28 PM 44.1658 -73.9536 125° Southeast 169 194 8,400 400 Climbing Boston Center
Fri 12:05:28 PM 44.1417 -73.8925 119° Southeast 174 200 8,800 300 Climbing Boston Center
Fri 12:06:28 PM 44.1217 -73.8311 114° Southeast 174 200 9,000 100 Climbing Boston Center
Fri 12:07:28 PM 44.0975 -73.7642 117° Southeast 179 206 9,000  Level Boston Center
Fri 12:08:28 PM 44.0731 -73.6972 117° Southeast 179 206 9,000  Level Boston Center
Fri 12:09:28 PM 44.0508 -73.6447 120° Southeast 184 212 9,000  Level Boston Center
Fri 12:10:28 PM 44.0164 -73.5486 116° Southeast 216 249 9,000  Level Boston Center
Fri 12:11:28 PM 43.9919 -73.4789 116° Southeast 216 249 9,000  Level Boston Center
Fri 12:12:28 PM 43.9697 -73.4092 114° Southeast 210 242 9,000  Level Boston Center
Fri 12:13:28 PM 43.9453 -73.3369 115° Southeast 204 235 9,000 -50 Level Boston Center
Fri 12:14:28 PM 43.9208 -73.2703 117° Southeast 198 228 8,900 -50 Descending Boston Center
Fri 12:15:29 PM 43.8942 -73.2036 119° Southeast 198 228 8,900 50 Level Boston Center
Fri 12:16:28 PM 43.8694 -73.1397 118° Southeast 192 221 9,000 50 Climbing Boston Center
Fri 12:17:28 PM 43.8428 -73.0733 119° Southeast 192 221 9,000 -50 Level Boston Center
Fri 12:18:28 PM 43.8161 -73.0097 120° Southeast 197 227 8,900 -50 Descending Boston Center
Fri 12:19:28 PM 43.7914 -72.9519 121° Southeast 192 221 8,900  Level Boston Center
Fri 12:20:28 PM 43.7667 -72.8886 118° Southeast 192 221 8,900  Level Boston Center
Fri 12:21:28 PM 43.7419 -72.8281 119° Southeast 187 215 8,900  Level Boston Center
Fri 12:22:28 PM 43.7169 -72.7675 120° Southeast 187 215 8,900  Level Boston Center
Fri 12:23:28 PM 43.6942 -72.7072 118° Southeast 187 215 8,900 50 Level Boston Center
Fri 12:24:28 PM 43.6694 -72.6439 118° Southeast 181 208 9,000 50 Climbing Boston Center
Fri 12:25:28 PM 43.6425 -72.5836 122° Southeast 186 214 9,000  Level Boston Center
Fri 12:26:28 PM 43.6153 -72.5175 120° Southeast 186 214 9,000  Level Boston Center
Fri 12:27:28 PM 43.5883 -72.4544 121° Southeast 192 221 9,000  Level Boston Center
Fri 12:28:28 PM 43.5611 -72.3886 120° Southeast 192 221 9,000  Level Boston Center
Fri 12:29:28 PM 43.5361 -72.3256 119° Southeast 192 221 9,000  Level Boston Center
Fri 12:30:28 PM 43.5089 -72.2625 121° Southeast 192 221 9,000  Level Boston Center
Fri 12:31:28 PM 43.4817 -72.1969 120° Southeast 187 215 9,000  Level Boston Center
Fri 12:32:28 PM 43.4567 -72.1342 119° Southeast 187 215 9,000  Level Boston Center
Fri 12:33:28 PM 43.4294 -72.0714 121° Southeast 187 215 9,000  Level Boston Center
Fri 12:34:28 PM 43.4000 -72.0000 120° Southeast 187 215 9,000  Level Boston Center
Fri 12:35:28 PM 43.3767 -71.9431 119° Southeast 192 221 9,000  Level Boston Center
Fri 12:36:40 PM 43.3472 -71.8747 121° Southeast 192 221 9,000  Level Boston Center
Fri 12:37:40 PM 43.3156 -71.7981 120° Southeast 192 221 9,000  Level Boston Center
Fri 12:38:40 PM 43.2903 -71.7383 120° Southeast 192 221 9,000  Level Boston Center
Fri 12:39:40 PM 43.2586 -71.6703 123° Southeast 192 221 9,000 -150 Level Boston Center
Fri 12:40:40 PM 43.2228 -71.6339 143° Southeast 186 214 8,700 -350 Descending Boston Center
Fri 12:41:40 PM 43.1767 -71.5803 140° Southeast 194 223 8,300 -350 Descending Boston Center
Fri 12:42:40 PM 43.1389 -71.5381 141° Southeast 194 223 8,000 -350 Descending Boston Center
Fri 12:43:40 PM 43.0925 -71.4847 140° Southeast 199 229 7,600 -361 Descending Boston Center
Fri 12:44:53 PM 43.0333 -71.4167 140° Southeast 202 232 7,200 -361 Descending KA90
Fri 12:45:53 PM 43.0000 -71.3667 132° Southeast 200 230 6,800 -347 Descending KA90
Fri 12:46:54 PM 42.9500 -71.3333 154° Southeast 193 222 6,500 -347 Descending KA90
Fri 12:47:54 PM 42.9167 -71.2833 132° Southeast 191 220 6,100 -238 Descending KA90
Fri 12:49:00 PM 42.8667 -71.2333 144° Southeast 184 212 6,000 -48 Descending KA90
Fri 12:49:59 PM 42.8333 -71.2000 144° Southeast 174 200 6,000 -158 Level KA90
Fri 12:50:54 PM 42.8000 -71.1500 132° Southeast 182 209 5,700 -261 Descending KA90
Fri 12:51:54 PM 42.7500 -71.1000 144° Southeast 186 214 5,500 -250 Descending KA90
Fri 12:52:54 PM 42.7167 -71.0833 160° South 180 207 5,200 -333 Descending KA90
Fri 12:54:00 PM 42.6500 -71.0667 170° South 172 198 4,800 -368 Descending KA90
Fri 12:54:48 PM 42.6167 -71.0667 180° South 176 203 4,500 -421 Descending KA90
Fri 12:55:54 PM 42.5667 -71.0500 166° South 175 201 4,000 -524 Descending KA90
Fri 12:56:54 PM 42.5167 -71.0333 166° South 179 206 3,400 -700 Descending KA90
Fri 12:57:54 PM 42.4667 -71.0000 154° Southeast 178 205 2,600 -789 Descending KA90
Fri 12:58:48 PM 42.4333 -70.9833 160° South 173 199 1,900 -1,000 Descending KA90
Fri 12:59:48 PM 42.4000 -70.9833 180° South 147 169 700 -1,200 Descending KA90
Fri 01:01:00 PM 42.3630 -71.0064 170° South  Level Estimated
Fri 01:08:00 PM 42.3630 -71.0064 170° South  Level Estimated

Login

Don't have an account? Register now (free) for customized features, flight alerts, and more!